Time,TemperatureF,DewpointF,PressureIn,WindDirection,WindDirectionDegrees,WindSpeedMPH,WindSpeedGustMPH,Humidity,HourlyPrecipIn,Conditions,Clouds,dailyrainin,SoftwareType,DateUTC
2013-11-04 00:01:00,55.2,44.0,29.87,South,175,4.0,7.0,67,0.00,,,0.00,weatherlink.com 1.10,2013-11-04 07:01:00,
2013-11-04 00:16:00,54.9,44.0,29.87,South,174,2.0,5.0,68,0.00,,,0.00,weatherlink.com 1.10,2013-11-04 07:16:00,
2013-11-04 00:31:00,54.7,44.0,29.87,South,173,0.0,5.0,68,0.00,,,0.00,weatherlink.com 1.10,2013-11-04 07:31:00,
2013-11-04 00:46:00,54.1,44.0,29.87,South,173,0.0,3.0,69,0.00,,,0.00,weatherlink.com 1.10,2013-11-04 07:46:00,
2013-11-04 01:01:00,53.7,44.0,29.86,South,172,0.0,5.0,69,0.00,,,0.00,weatherlink.com 1.10,2013-11-04 08:01:00,
2013-11-04 01:16:00,53.6,44.0,29.86,South,169,0.0,5.0,70,0.00,,,0.00,weatherlink.com 1.10,2013-11-04 08:16:00,
2013-11-04 01:31:00,52.7,44.0,29.87,SSE,168,0.0,3.0,71,0.00,,,0.00,weatherlink.com 1.10,2013-11-04 08:31:00,
2013-11-04 01:46:00,52.2,43.0,29.87,SSE,168,0.0,4.0,72,0.00,,,0.00,weatherlink.com 1.10,2013-11-04 08:46:00,
2013-11-04 02:01:00,51.5,43.0,29.87,SSE,168,2.0,4.0,73,0.00,,,0.00,weatherlink.com 1.10,2013-11-04 09:01:00,
2013-11-04 02:16:00,51.5,43.0,29.87,SSE,168,0.0,4.0,74,0.00,,,0.00,weatherlink.com 1.10,2013-11-04 09:16:00,
2013-11-04 02:31:00,51.2,43.0,29.87,SSE,168,0.0,5.0,74,0.00,,,0.00,weatherlink.com 1.10,2013-11-04 09:31:00,
2013-11-04 02:46:00,50.5,43.0,29.86,SSE,168,0.0,5.0,75,0.00,,,0.00,weatherlink.com 1.10,2013-11-04 09:46:00,
2013-11-04 03:01:00,50.3,43.0,29.86,SSE,168,0.0,5.0,76,0.00,,,0.00,weatherlink.com 1.10,2013-11-04 10:01:00,
2013-11-04 03:16:00,50.3,43.0,29.86,SSE,163,2.0,7.0,76,0.00,,,0.00,weatherlink.com 1.10,2013-11-04 10:16:00,
2013-11-04 03:31:00,50.4,43.0,29.86,SSE,162,5.0,5.0,75,0.00,,,0.00,weatherlink.com 1.10,2013-11-04 10:31:00,
2013-11-04 03:46:00,50.1,43.0,29.87,SSE,160,2.0,7.0,76,0.00,,,0.00,weatherlink.com 1.10,2013-11-04 10:46:00,
2013-11-04 04:01:00,50.4,43.0,29.87,SSE,154,4.0,8.0,76,0.00,,,0.00,weatherlink.com 1.10,2013-11-04 11:01:00,
2013-11-04 04:16:00,50.5,43.0,29.86,SSE,151,2.0,5.0,75,0.00,,,0.00,weatherlink.com 1.10,2013-11-04 11:16:00,
2013-11-04 04:31:00,50.1,43.0,29.87,SSE,151,5.0,6.0,76,0.00,,,0.00,weatherlink.com 1.10,2013-11-04 11:31:00,
2013-11-04 04:46:00,50.5,43.0,29.88,SSE,151,0.0,7.0,76,0.00,,,0.00,weatherlink.com 1.10,2013-11-04 11:46:00,
2013-11-04 05:01:00,50.4,43.0,29.89,SSE,151,0.0,4.0,76,0.00,,,0.00,weatherlink.com 1.10,2013-11-04 12:01:00,
2013-11-04 05:16:00,49.8,43.0,29.89,SSE,151,0.0,6.0,78,0.00,,,0.00,weatherlink.com 1.10,2013-11-04 12:16:00,
2013-11-04 05:31:00,49.1,43.0,29.89,SSE,151,1.0,3.0,79,0.00,,,0.00,weatherlink.com 1.10,2013-11-04 12:31:00,
2013-11-04 05:46:00,48.8,43.0,29.90,SSE,151,0.0,3.0,80,0.00,,,0.00,weatherlink.com 1.10,2013-11-04 12:46:00,
2013-11-04 06:02:00,48.9,43.0,29.89,SSE,151,4.0,7.0,80,0.00,,,0.00,weatherlink.com 1.10,2013-11-04 13:02:00,
2013-11-04 06:17:00,48.7,43.0,29.89,SSE,151,1.0,5.0,80,0.00,,,0.00,weatherlink.com 1.10,2013-11-04 13:17:00,
2013-11-04 06:32:00,48.6,43.0,29.90,SSE,151,4.0,6.0,81,0.00,,,0.00,weatherlink.com 1.10,2013-11-04 13:32:00,
2013-11-04 06:47:00,49.6,44.0,29.91,SSE,151,3.0,8.0,80,0.00,,,0.00,weatherlink.com 1.10,2013-11-04 13:47:00,
2013-11-04 07:02:00,51.1,44.0,29.92,SSE,149,0.0,7.0,77,0.00,,,0.00,weatherlink.com 1.10,2013-11-04 14:02:00,
2013-11-04 07:17:00,52.7,45.0,29.92,SSE,151,0.0,5.0,74,0.00,,,0.00,weatherlink.com 1.10,2013-11-04 14:17:00,
2013-11-04 07:32:00,54.5,45.0,29.92,SSE,157,0.0,7.0,71,0.00,,,0.00,weatherlink.com 1.10,2013-11-04 14:32:00,
2013-11-04 07:47:00,55.8,45.0,29.92,South,172,6.0,11.0,68,0.00,,,0.00,weatherlink.com 1.10,2013-11-04 14:47:00,
2013-11-04 08:02:00,57.0,46.0,29.93,South,170,4.0,10.0,67,0.00,,,0.00,weatherlink.com 1.10,2013-11-04 15:02:00,
2013-11-04 08:17:00,58.2,46.0,29.95,South,188,6.0,11.0,64,0.00,,,0.00,weatherlink.com 1.10,2013-11-04 15:17:00,
2013-11-04 08:32:00,59.8,47.0,29.95,South,184,0.0,9.0,63,0.00,,,0.00,weatherlink.com 1.10,2013-11-04 15:32:00,
2013-11-04 08:47:00,60.9,47.0,29.97,SW,220,2.0,9.0,60,0.00,,,0.00,weatherlink.com 1.10,2013-11-04 15:47:00,
2013-11-04 09:02:00,61.6,46.0,29.96,SW,230,3.0,6.0,58,0.00,,,0.00,weatherlink.com 1.10,2013-11-04 16:02:00,
2013-11-04 09:17:00,62.7,47.0,29.96,SW,227,5.0,9.0,57,0.00,,,0.00,weatherlink.com 1.10,2013-11-04 16:17:00,
2013-11-04 09:32:00,64.1,48.0,29.95,SW,228,0.0,10.0,57,0.00,,,0.00,weatherlink.com 1.10,2013-11-04 16:32:00,
2013-11-04 09:47:00,64.9,48.0,29.95,SSW,199,2.0,7.0,55,0.00,,,0.00,weatherlink.com 1.10,2013-11-04 16:47:00,
2013-11-04 10:02:00,65.7,48.0,29.95,SW,229,9.0,9.0,54,0.00,,,0.00,weatherlink.com 1.10,2013-11-04 17:02:00,
2013-11-04 10:17:00,65.9,49.0,29.94,WSW,246,0.0,12.0,55,0.00,,,0.00,weatherlink.com 1.10,2013-11-04 17:17:00,
2013-11-04 10:32:00,66.9,49.0,29.93,WSW,249,5.0,13.0,53,0.00,,,0.00,weatherlink.com 1.10,2013-11-04 17:32:00,
2013-11-04 10:47:00,67.0,49.0,29.93,SW,231,1.0,11.0,53,0.00,,,0.00,weatherlink.com 1.10,2013-11-04 17:47:00,
2013-11-04 11:03:00,67.4,49.0,29.92,WSW,239,0.0,8.0,52,0.00,,,0.00,weatherlink.com 1.10,2013-11-04 18:03:00,
2013-11-04 11:17:00,68.0,49.0,29.92,WSW,239,0.0,8.0,51,0.00,,,0.00,weatherlink.com 1.10,2013-11-04 18:17:00,
2013-11-04 11:32:00,68.2,49.0,29.91,West,260,0.0,7.0,51,0.00,,,0.00,weatherlink.com 1.10,2013-11-04 18:32:00,
2013-11-04 11:47:00,69.2,49.0,29.91,SW,222,0.0,7.0,49,0.00,,,0.00,weatherlink.com 1.10,2013-11-04 18:47:00,
2013-11-04 12:03:00,69.9,50.0,29.90,SSW,206,0.0,7.0,49,0.00,,,0.00,weatherlink.com 1.10,2013-11-04 19:03:00,
2013-11-04 12:18:00,70.1,49.0,29.90,SSW,207,3.0,7.0,48,0.00,,,0.00,weatherlink.com 1.10,2013-11-04 19:18:00,
2013-11-04 12:33:00,70.5,50.0,29.89,SSE,149,0.0,8.0,48,0.00,,,0.00,weatherlink.com 1.10,2013-11-04 19:33:00,
2013-11-04 12:48:00,70.9,50.0,29.89,SSE,149,0.0,6.0,47,0.00,,,0.00,weatherlink.com 1.10,2013-11-04 19:48:00,
2013-11-04 13:03:00,71.2,50.0,29.88,SSW,206,7.0,10.0,48,0.00,,,0.00,weatherlink.com 1.10,2013-11-04 20:03:00,
2013-11-04 13:18:00,71.5,50.0,29.88,South,174,0.0,8.0,47,0.00,,,0.00,weatherlink.com 1.10,2013-11-04 20:18:00,
2013-11-04 13:33:00,71.9,50.0,29.88,South,172,1.0,7.0,47,0.00,,,0.00,weatherlink.com 1.10,2013-11-04 20:33:00,
2013-11-04 13:48:00,72.7,51.0,29.87,SSE,165,0.0,5.0,46,0.00,,,0.00,weatherlink.com 1.10,2013-11-04 20:48:00,
2013-11-04 14:03:00,73.0,50.0,29.87,SSE,165,0.0,7.0,45,0.00,,,0.00,weatherlink.com 1.10,2013-11-04 21:03:00,
2013-11-04 14:18:00,72.8,50.0,29.87,SSE,152,4.0,9.0,45,0.00,,,0.00,weatherlink.com 1.10,2013-11-04 21:18:00,
2013-11-04 14:33:00,72.9,50.0,29.87,SSE,152,0.0,9.0,45,0.00,,,0.00,weatherlink.com 1.10,2013-11-04 21:33:00,
2013-11-04 14:48:00,73.1,50.0,29.87,SSE,156,5.0,7.0,45,0.00,,,0.00,weatherlink.com 1.10,2013-11-04 21:48:00,
2013-11-04 15:03:00,73.0,50.0,29.87,SSE,156,3.0,7.0,45,0.00,,,0.00,weatherlink.com 1.10,2013-11-04 22:03:00,
2013-11-04 15:18:00,73.5,51.0,29.88,SSE,156,1.0,5.0,45,0.00,,,0.00,weatherlink.com 1.10,2013-11-04 22:18:00,
2013-11-04 15:33:00,73.4,51.0,29.87,SSE,156,0.0,7.0,46,0.00,,,0.00,weatherlink.com 1.10,2013-11-04 22:33:00,
2013-11-04 15:48:00,73.6,51.0,29.87,SSE,155,0.0,7.0,46,0.00,,,0.00,weatherlink.com 1.10,2013-11-04 22:48:00,
2013-11-04 16:03:00,73.5,52.0,29.87,SSE,154,1.0,6.0,47,0.00,,,0.00,weatherlink.com 1.10,2013-11-04 23:03:00,
2013-11-04 16:18:00,73.0,52.0,29.87,SSE,154,0.0,6.0,48,0.00,,,0.00,weatherlink.com 1.10,2013-11-04 23:18:00,
2013-11-04 16:33:00,72.7,52.0,29.87,SSE,154,4.0,5.0,49,0.00,,,0.00,weatherlink.com 1.10,2013-11-04 23:33:00,
2013-11-04 16:48:00,71.9,54.0,29.88,SE,139,7.0,15.0,53,0.00,,,0.00,weatherlink.com 1.10,2013-11-04 23:48:00,
2013-11-04 17:03:00,71.3,54.0,29.88,SE,141,4.0,12.0,55,0.00,,,0.00,weatherlink.com 1.10,2013-11-05 00:03:00,
2013-11-04 17:18:00,70.7,55.0,29.89,SE,139,10.0,15.0,57,0.00,,,0.00,weatherlink.com 1.10,2013-11-05 00:18:00,
2013-11-04 17:33:00,69.7,55.0,29.89,SE,129,12.0,13.0,60,0.00,,,0.00,weatherlink.com 1.10,2013-11-05 00:33:00,
2013-11-04 17:48:00,67.1,55.0,29.90,SE,128,1.0,17.0,66,0.00,,,0.00,weatherlink.com 1.10,2013-11-05 00:48:00,
2013-11-04 18:03:00,65.6,55.0,29.91,SE,133,11.0,16.0,69,0.00,,,0.00,weatherlink.com 1.10,2013-11-05 01:03:00,
2013-11-04 18:18:00,64.8,55.0,29.91,SE,141,6.0,16.0,71,0.00,,,0.00,weatherlink.com 1.10,2013-11-05 01:18:00,
2013-11-04 18:33:00,64.1,55.0,29.91,SE,136,1.0,13.0,73,0.00,,,0.00,weatherlink.com 1.10,2013-11-05 01:33:00,
2013-11-04 18:48:00,63.4,55.0,29.92,SE,138,12.0,12.0,74,0.00,,,0.00,weatherlink.com 1.10,2013-11-05 01:48:00,
2013-11-04 19:03:00,62.8,55.0,29.92,SE,142,1.0,12.0,76,0.00,,,0.00,weatherlink.com 1.10,2013-11-05 02:03:00,
2013-11-04 19:18:00,62.3,55.0,29.93,SSE,148,6.0,16.0,77,0.00,,,0.00,weatherlink.com 1.10,2013-11-05 02:18:00,
2013-11-04 19:33:00,61.9,55.0,29.93,SE,140,6.0,16.0,78,0.00,,,0.00,weatherlink.com 1.10,2013-11-05 02:33:00,
2013-11-04 19:48:00,61.2,55.0,29.94,SE,138,3.0,11.0,79,0.00,,,0.00,weatherlink.com 1.10,2013-11-05 02:48:00,
2013-11-04 20:03:00,60.8,55.0,29.94,SE,138,0.0,12.0,80,0.00,,,0.00,weatherlink.com 1.10,2013-11-05 03:03:00,
2013-11-04 20:18:00,60.7,55.0,29.94,SE,145,8.0,12.0,81,0.00,,,0.00,weatherlink.com 1.10,2013-11-05 03:18:00,
2013-11-04 20:33:00,60.8,55.0,29.95,SE,138,7.0,14.0,80,0.00,,,0.00,weatherlink.com 1.10,2013-11-05 03:33:00,
2013-11-04 20:48:00,60.4,55.0,29.95,SE,142,9.0,12.0,81,0.00,,,0.00,weatherlink.com 1.10,2013-11-05 03:48:00,
2013-11-04 21:03:00,59.8,55.0,29.95,SSE,150,9.0,13.0,83,0.00,,,0.00,weatherlink.com 1.10,2013-11-05 04:03:00,
2013-11-04 21:18:00,59.2,54.0,29.95,SSE,147,7.0,12.0,84,0.00,,,0.00,weatherlink.com 1.10,2013-11-05 04:18:00,
2013-11-04 21:33:00,58.8,54.0,29.95,SE,145,8.0,14.0,85,0.00,,,0.00,weatherlink.com 1.10,2013-11-05 04:33:00,
2013-11-04 21:48:00,58.4,54.0,29.95,SE,143,5.0,13.0,86,0.00,,,0.00,weatherlink.com 1.10,2013-11-05 04:48:00,
2013-11-04 22:03:00,58.0,55.0,29.95,SE,143,8.0,13.0,88,0.00,,,0.00,weatherlink.com 1.10,2013-11-05 05:03:00,
2013-11-04 22:18:00,57.7,54.0,29.94,SE,134,6.0,15.0,88,0.00,,,0.00,weatherlink.com 1.10,2013-11-05 05:18:00,
2013-11-04 22:33:00,57.5,54.0,29.94,SE,136,0.0,12.0,89,0.00,,,0.00,weatherlink.com 1.10,2013-11-05 05:33:00,
2013-11-04 22:48:00,57.3,54.0,29.94,SE,144,5.0,12.0,89,0.00,,,0.00,weatherlink.com 1.10,2013-11-05 05:48:00,
2013-11-04 23:03:00,56.9,54.0,29.94,SE,139,5.0,13.0,90,0.00,,,0.00,weatherlink.com 1.10,2013-11-05 06:03:00,
2013-11-04 23:18:00,56.8,54.0,29.93,SE,135,3.0,11.0,90,0.00,,,0.00,weatherlink.com 1.10,2013-11-05 06:18:00,
2013-11-04 23:33:00,56.8,54.0,29.93,SE,143,10.0,12.0,91,0.00,,,0.00,weatherlink.com 1.10,2013-11-05 06:33:00,
2013-11-04 23:48:00,57.3,55.0,29.93,SE,144,6.0,16.0,91,0.00,,,0.00,weatherlink.com 1.10,2013-11-05 06:48:00,